Aérodrome :
LOGIN :

S'inscrire | Disclaimer

   EN    FR    IT 

 










Légende :    VFR   VFR Marginal   IFR   IFR Intensif   IFR Très Intensif
Visi : 
Plafond : 
>= 8 km
>= 3000ft
5 à 8 km
1000 à 3000 ft
1500m à 5 km
500 à 1000 ft
800 à 1500m
200 à 500 ft
< 800m
< 200 ft
Symboles :   Orages  Brouillard  Fortes neiges  Fortes précipitations  Vent > 20 kt
SIGMETs :   Divers  Orages  Givrage  Turbulence  Onde Orograph.  Cendres Volcan.







- Altitude de l'aérodrome : 219 ft
- Code IATA : DNR
- Voir les cartes d'approche


LFRD - Dinard

DERNIER METAR :
  • 192000Z AUTO 24010KT 9999 BKN021 BKN028 BKN035 14/12 Q1003 TEMPO 18020G30KT

METARs EXPIRÉS :
  • 191930Z AUTO 22008KT 9999 FEW008 SCT029 BKN042 14/13 Q1003 BECMG 18020G30KT
  • 191900Z AUTO 18019KT 9000 -RA BKN010 BKN014 BKN041 14/13 Q1002 BECMG 18020G30KT BKN025
  • 191830Z AUTO 18018KT 9999 -RA BKN013 BKN024 BKN048 14/13 Q1001 TEMPO 3000 RA BECMG 18020G30KT BKN025
  • 191800Z AUTO 18021KT 7000 RA FEW016/// SCT028/// BKN062/// ///CB 14/12 Q1001 TEMPO 3000 RA BECMG 18020G30KT BKN025
  • 191730Z AUTO 18020KT 7000 RA FEW020/// SCT050/// BKN070/// ///TCU 14/12 Q1001 TEMPO 19025G40KT 3000 RA BKN012

TAF AMD TAF LFRD
Valide du 19 à 19h jusqu'au 20 à 18h UTC


191955Z 1919/2018 22010KT 9999 NSW SCT030
TEMPO 2015/2018 18015G25KT
ATIS : +33 2 99 16 81 50
Pas de NOTAMs connus pour ce terrain.
3 SIGMETs publiés pour la FIR Brest (LFRR) :
 
Turbulence forte
LFRR SIGMET 8 VALID 192000/192300 LFPW
LFRR BREST FIR/UIR SEV TURB FCST WI N4930 W00115 - N4700 W00045 - N4630 W00245 - N4900 W00545 FL180/310 MOV NE 30KT NC=
Turbulence forte
LFRR SIGMET 7 VALID 191900/192300 LFPW
LFRR BREST FIR/UIR SEV TURB OBS WI N4915 W00700 - N5000 W00200 - N5000 W00015 - N4815 W00015 - N4630 W00215 - N4715 W00330 - N4830 W00315 - N4845 W00600 SFC/FL060 MOV NE 30KT NC=
Turbulence forte
LFRR SIGMET 6 VALID 191800/192200 LFPW
LFRR BREST FIR/UIR SEV TURB FCST WI N4545 W00145 - N4330 W00145 - N4400 W00330 - N4630 W00430 - N4645 W00215 FL220/310 MOV E 30KT WKN=



MET'MAP, la Météo Aéronautique d'un coup d'oeil ! - Copyright ORBIFLY Décembre 2007 - Disclaimer

ORBIFLY MET'MAP TEAM :

Programmation & Développement : Alexandra Zaïnal
Conception & Développement : Baudouin d'Aumeries
Co-Programmation & Développement : Marc-Olivier Méhu
Soutien technique & logistique : Manuel Goepfert

Contact : metmap@orbifly.com




SOURCES & CREDITS :

   NOAA